ADDS TAF Board (Experimental) INFO Settings
IDs: Format: Expanded Condensed

KPHL - Philadelphia Intl, PA, US

Issued at 0534 UTC 25 Jul 2016
Updated at 0805 UTC 25 Jul 2016
Time0754Z 25/09Z 25/10Z 25/11Z 25/12Z 25/13Z 25/14Z 25/15Z 25/16Z 25/17Z 25/18Z 25/19Z 25/20Z 25/21Z
Type OBS PRVL PRVL PRVL PRVL PRVL PRVL PRVL PRVL PRVL PRVL PRVL PRVL PRVL
VIS 10 >6 >6 >6 >6 >6 >6 >6 >6 >6 >6 >6 >6 >6
CIG 120 150 150 150 150 150 150 150 150 150 150 150 150 150
Cover OVC BKN BKN BKN BKN BKN BKN BKN BKN BKN BKN BKN BKN BKN
FltCat VFR VFR VFR VFR VFR VFR VFR VFR VFR VFR VFR VFR VFR VFR
WX -- -- -- -- -- -- -- -- -- -- -- -- -- --
WDir 180 240 240 240 240 240 240 240 240 240 250 250 250 250
WSpd 7 6 6 6 7 7 7 7 7 7 10 10 10 10
WGst -- -- -- -- -- -- -- -- -- -- 20 20 20 20
R08/26
XWnd -7 -2 -2 -2 -2 -2 -2 -2 -2 -2 -1 -1 -1 -1
XGst -- -- -- -- -- -- -- -- -- -- -2 -2 -2 -2
HWnd -2 -6 -6 -6 -7 -7 -7 -7 -7 -7 -10 -10 -10 -10
HGst -- -- -- -- -- -- -- -- -- -- -20 -20 -20 -20
R09/27
XWnd -7 -2 -2 -2 -2 -2 -2 -2 -2 -2 -1 -1 -1 -1
XGst -- -- -- -- -- -- -- -- -- -- -2 -2 -2 -2
HWnd -2 -6 -6 -6 -7 -7 -7 -7 -7 -7 -10 -10 -10 -10
HGst -- -- -- -- -- -- -- -- -- -- -20 -20 -20 -20
R17/35
XWnd -3 -6 -6 -6 -7 -7 -7 -7 -7 -7 -10 -10 -10 -10
XGst -- -- -- -- -- -- -- -- -- -- -20 -20 -20 -20
HWnd 7 1 1 1 1 1 1 1 1 1 -0 -0 -0 -0
HGst -- -- -- -- -- -- -- -- -- -- -0 -0 -0 -0

Raw TAF
KPHL 250534Z 2506/2612 24006KT P6SM BKN150
  FM251200 24007KT P6SM SCT060 BKN150
  FM251800 25010G20KT P6SM SCT070 BKN150
  TEMPO 2522/2524 5SM -TSRA OVC040CB
  FM260100 24006KT P6SM SCT100


Raw METAR
KPHL 250754Z 18007KT 10SM BKN120 BKN160 OVC220 27/22 A2994 RMK AO2 SLP137 T02670217 $
KPHL 250654Z 20005KT 10SM FEW110 SCT140 OVC180 27/21 A2996 RMK AO2 SLP143 T02720206 $
KPHL 250554Z 20004KT 10SM FEW070 SCT110 OVC200 28/20 A2996 RMK AO2 SLP144 T02780200 10311 20272 58010 $

METAR Board
Radar Display
Forecast Discussion

TAF Board Legend

Potential Impact
Threat None Slight Moderate High
Visibility (sm) ≥5.1 5.1>X≥3 3>X≥1 <1
Ceiling (100 ft) ≥30.1 30.1>X≥10 10>X≥5 <5
Wind Speed (kt) <10 10≤X<20 20≤X<30 ≥30
Wind Gust (kt) <15 15≤X<25 25≤X<35 ≥35
Weather No Wx Reported VCTS,-TS,-FZRA,SN TS,FZRA +TS,+FZRA,+SN